Time;durP1;ratioP1;P1;durP2;ratioP2;P2;SDS_P1;SDS_P2;PMS_P1;PMS_P2;Temp;Humidity;BMP_temperature;BMP_pressure;BME280_temperature;BME280_humidity;BME280_pressure;Samples;Min_cycle;Max_cycle;Signal;HPM_P1;HPM_P2
2022/10/23 00:01:29;;;;;;;31.20;5.40;;;14.40;99.90;;;;;;5015192;28;20050;-74
2022/10/23 00:04:02;;;;;;;27.63;5.60;;;14.40;99.90;;;;;;5015451;28;20357;-74
2022/10/23 00:06:31;;;;;;;25.30;4.82;;;14.40;99.90;;;;;;5014580;28;20045;-73
2022/10/23 00:08:59;;;;;;;30.60;5.40;;;14.40;99.90;;;;;;5013813;28;20381;-74
2022/10/23 00:11:28;;;;;;;32.92;5.22;;;14.50;99.90;;;;;;5014895;28;20042;-74
2022/10/23 00:13:59;;;;;;;25.70;5.05;;;14.40;99.90;;;;;;5014878;28;20037;-74
2022/10/23 00:16:27;;;;;;;24.30;4.82;;;14.40;99.90;;;;;;5014071;28;20046;-75
2022/10/23 00:18:55;;;;;;;25.13;4.38;;;14.40;99.90;;;;;;5014654;28;20046;-75
2022/10/23 00:21:23;;;;;;;24.95;4.57;;;14.50;99.90;;;;;;5014698;28;20045;-74
2022/10/23 00:23:51;;;;;;;;;;;14.50;99.90;;;;;;5019502;28;20118;-75
2022/10/23 00:26:19;;;;;;;25.08;4.25;;;14.50;99.90;;;;;;5018870;28;20359;-74
2022/10/23 00:28:49;;;;;;;26.40;4.25;;;14.50;99.90;;;;;;5017662;28;20042;-74
2022/10/23 00:31:19;;;;;;;29.98;4.50;;;14.50;99.90;;;;;;5019132;28;20049;-75
2022/10/23 00:33:46;;;;;;;24.25;4.53;;;14.50;99.90;;;;;;5001635;28;20048;-74
2022/10/23 00:36:17;;;;;;;18.08;3.97;;;14.60;99.90;;;;;;4984543;28;20041;-74
2022/10/23 00:38:45;;;;;;;28.17;4.40;;;14.60;99.90;;;;;;5018805;28;20053;-75
2022/10/23 00:41:20;;;;;;;31.38;4.63;;;14.60;99.90;;;;;;5001395;28;20057;-74
2022/10/23 00:44:09;;;;;;;22.85;4.28;;;14.60;99.90;;;;;;5018657;28;20069;-75
2022/10/23 00:46:38;;;;;;;28.33;4.53;;;14.60;99.90;;;;;;5001479;28;20053;-75
2022/10/23 00:49:06;;;;;;;23.08;4.32;;;14.60;99.90;;;;;;5000255;28;20041;-74
2022/10/23 00:51:45;;;;;;;19.98;4.22;;;14.70;99.90;;;;;;5001239;28;20068;-75
2022/10/23 00:54:15;;;;;;;21.70;4.03;;;14.70;99.90;;;;;;5001633;28;20056;-73
2022/10/23 00:56:55;;;;;;;20.80;4.03;;;14.70;99.90;;;;;;5000289;28;20050;-75
2022/10/23 00:59:23;;;;;;;23.95;4.60;;;14.70;99.90;;;;;;5018491;28;20050;-74
2022/10/23 01:01:51;;;;;;;;;;;14.70;99.90;;;;;;5018020;28;20045;-74
2022/10/23 01:04:19;;;;;;;23.55;4.22;;;14.70;99.90;;;;;;5018666;28;19921;-73
2022/10/23 01:07:03;;;;;;;23.35;3.97;;;14.60;99.90;;;;;;5001335;28;20054;-74
2022/10/23 01:09:41;;;;;;;22.45;4.13;;;14.70;99.90;;;;;;5017101;28;20050;-75
2022/10/23 01:12:17;;;;;;;21.35;3.95;;;14.70;99.90;;;;;;5018051;28;20046;-74
2022/10/23 01:15:02;;;;;;;20.75;4.28;;;14.70;99.90;;;;;;4999980;28;20042;-74
2022/10/23 01:18:04;;;;;;;27.00;4.88;;;14.80;99.90;;;;;;5000827;28;20050;-75
2022/10/23 01:20:49;;;;;;;23.30;4.50;;;14.70;99.90;;;;;;4985138;28;20053;-74
2022/10/23 01:23:42;;;;;;;25.77;4.00;;;14.80;99.90;;;;;;5016858;28;20057;-75
2022/10/23 01:26:21;;;;;;;28.20;4.57;;;14.70;99.90;;;;;;5000648;28;20061;-74
2022/10/23 01:28:56;;;;;;;28.20;4.90;;;14.70;99.90;;;;;;4983551;28;20053;-75
2022/10/23 01:31:34;;;;;;;29.10;4.60;;;14.70;99.90;;;;;;5018035;28;20456;-75
2022/10/23 01:34:06;;;;;;;;;;;14.70;99.90;;;;;;5000196;28;20049;-75
2022/10/23 01:36:37;;;;;;;23.38;4.47;;;14.70;99.90;;;;;;5016548;28;20347;-74
2022/10/23 01:39:11;;;;;;;22.98;5.00;;;14.70;99.90;;;;;;5000334;28;20034;-75
2022/10/23 01:41:51;;;;;;;23.55;4.60;;;14.60;99.90;;;;;;4999169;28;20286;-76
2022/10/23 01:44:28;;;;;;;22.55;4.57;;;14.70;99.90;;;;;;5000376;28;20054;-75
2022/10/23 01:46:56;;;;;;;25.55;4.43;;;14.70;99.90;;;;;;5000331;28;20042;-75
2022/10/23 01:49:28;;;;;;;20.35;4.63;;;14.70;99.90;;;;;;4999033;28;20372;-73
2022/10/23 01:52:01;;;;;;;26.33;4.72;;;14.70;99.90;;;;;;5000816;28;20460;-75
2022/10/23 01:54:35;;;;;;;31.13;5.13;;;14.70;99.90;;;;;;5000586;28;20496;-75
2022/10/23 01:57:05;;;;;;;26.38;4.95;;;14.70;99.90;;;;;;4999053;28;20065;-74
2022/10/23 01:59:37;;;;;;;31.48;5.35;;;14.60;99.90;;;;;;5000133;28;20049;-75
2022/10/23 02:02:09;;;;;;;26.20;5.10;;;14.60;99.90;;;;;;4998979;28;20060;-74
2022/10/23 02:04:46;;;;;;;19.15;4.68;;;14.60;99.90;;;;;;4999792;28;20049;-74
2022/10/23 02:07:13;;;;;;;24.25;4.78;;;14.60;99.90;;;;;;5000104;28;20372;-74
2022/10/23 02:09:41;;;;;;;31.70;5.35;;;14.60;99.90;;;;;;4998932;28;20046;-74
2022/10/23 02:12:15;;;;;;;29.50;4.78;;;14.60;99.90;;;;;;5017170;28;20049;-75
2022/10/23 02:14:55;;;;;;;29.33;5.50;;;14.60;99.90;;;;;;4999371;28;20037;-74
2022/10/23 02:17:31;;;;;;;25.55;5.20;;;14.70;99.90;;;;;;5017082;28;20069;-74
2022/10/23 02:20:28;;;;;;;25.65;5.95;;;14.70;99.90;;;;;;5017064;28;20057;-75
2022/10/23 02:23:06;;;;;;;30.70;6.43;;;14.70;99.90;;;;;;5008146;28;20053;-75
2022/10/23 02:25:43;;;;;;;26.17;6.53;;;14.70;99.90;;;;;;5016984;28;20374;-75
2022/10/23 02:28:16;;;;;;;30.75;6.78;;;14.80;99.90;;;;;;5016069;28;20461;-74
2022/10/23 02:30:49;;;;;;;28.10;6.28;;;14.80;99.90;;;;;;4999640;28;20041;-74
2022/10/23 02:33:17;;;;;;;29.10;6.22;;;14.80;99.90;;;;;;4999560;28;20038;-75
2022/10/23 02:35:47;;;;;;;22.20;6.03;;;14.80;99.90;;;;;;4998316;28;20453;-74
2022/10/23 02:38:30;;;;;;;28.27;5.47;;;14.80;99.90;;;;;;4999760;28;20038;-75
2022/10/23 02:41:19;;;;;;;27.70;5.78;;;14.80;99.90;;;;;;4999344;28;20061;-74
2022/10/23 02:44:14;;;;;;;27.08;5.53;;;14.80;99.90;;;;;;5016275;28;20050;-75
2022/10/23 02:47:02;;;;;;;22.95;4.63;;;14.80;99.90;;;;;;5016386;28;20065;-75
2022/10/23 02:49:59;;;;;;;27.48;5.75;;;14.80;99.90;;;;;;4998088;28;20046;-74
2022/10/23 02:52:41;;;;;;;24.70;5.35;;;14.70;99.90;;;;;;5015899;28;20045;-74
2022/10/23 02:55:11;;;;;;;26.42;5.53;;;14.70;99.90;;;;;;4997915;28;20512;-74
2022/10/23 02:57:59;;;;;;;28.88;5.50;;;14.70;99.90;;;;;;4984296;28;20358;-75
2022/10/23 03:00:29;;;;;;;20.60;5.35;;;14.70;99.90;;;;;;4982826;28;20064;-75
2022/10/23 03:03:06;;;;;;;27.40;5.57;;;14.70;99.90;;;;;;4998027;28;20057;-75
2022/10/23 03:05:38;;;;;;;26.35;5.43;;;14.70;99.90;;;;;;4999336;28;20053;-74
2022/10/23 03:08:12;;;;;;;24.65;4.97;;;14.70;99.90;;;;;;4997596;28;20461;-75
2022/10/23 03:10:41;;;;;;;23.27;4.65;;;14.70;99.90;;;;;;4982687;28;20046;-74
2022/10/23 03:13:10;;;;;;;28.70;4.90;;;14.70;99.90;;;;;;5015801;28;20042;-74
2022/10/23 03:15:42;;;;;;;28.85;5.32;;;14.60;99.90;;;;;;4998041;28;20042;-74
2022/10/23 03:18:13;;;;;;;26.77;5.00;;;14.60;99.90;;;;;;5020225;28;20041;-74
2022/10/23 03:20:45;;;;;;;30.00;4.90;;;14.60;99.90;;;;;;5034639;28;20384;-74
2022/10/23 03:23:14;;;;;;;31.13;4.55;;;14.60;99.90;;;;;;5033343;28;20056;-74
2022/10/23 03:25:42;;;;;;;21.55;4.32;;;14.60;99.90;;;;;;5035768;28;20045;-74
2022/10/23 03:28:20;;;;;;;22.02;4.00;;;14.60;99.90;;;;;;5017284;28;20290;-75
2022/10/23 03:30:47;;;;;;;27.10;4.38;;;14.70;99.90;;;;;;5034286;28;20041;-75
2022/10/23 03:33:15;;;;;;;21.17;4.72;;;14.60;99.90;;;;;;5034349;28;20042;-75
2022/10/23 03:35:43;;;;;;;23.15;4.45;;;14.60;99.90;;;;;;5034097;28;20061;-74
2022/10/23 03:38:14;;;;;;;27.05;5.00;;;14.50;99.90;;;;;;5034472;28;20033;-74
2022/10/23 03:40:42;;;;;;;28.40;4.47;;;14.50;99.90;;;;;;5034660;28;20435;-74
2022/10/23 03:43:12;;;;;;;18.50;4.50;;;14.60;99.90;;;;;;5033066;28;20490;-74
2022/10/23 03:45:40;;;;;;;21.67;4.50;;;14.40;99.90;;;;;;5018049;28;20369;-73
2022/10/23 03:48:08;;;;;;;21.73;4.95;;;14.50;99.90;;;;;;5032996;28;20396;-74
2022/10/23 03:50:36;;;;;;;21.80;4.90;;;14.50;99.90;;;;;;5034734;28;20049;-75
2022/10/23 03:53:04;;;;;;;24.38;4.10;;;14.50;99.90;;;;;;5017635;28;20064;-73
2022/10/23 03:55:33;;;;;;;27.17;4.30;;;14.40;99.90;;;;;;5032788;28;20041;-74
2022/10/23 03:58:01;;;;;;;22.40;4.40;;;14.40;99.90;;;;;;5033632;28;20479;-75
2022/10/23 04:00:28;;;;;;;17.10;3.90;;;14.40;99.90;;;;;;5017909;28;20052;-74
2022/10/23 04:02:56;;;;;;;22.50;4.50;;;14.40;99.90;;;;;;5032870;28;20468;-74
2022/10/23 04:05:23;;;;;;;25.58;4.32;;;14.40;99.90;;;;;;5034369;28;20056;-75
2022/10/23 04:07:55;;;;;;;17.25;4.40;;;14.40;99.90;;;;;;5034260;28;20046;-74
2022/10/23 04:10:23;;;;;;;18.95;4.05;;;14.40;99.90;;;;;;5033475;28;20056;-74
2022/10/23 04:12:50;;;;;;;20.67;3.95;;;14.40;99.90;;;;;;5034954;28;20053;-75
2022/10/23 04:15:18;;;;;;;25.90;4.25;;;14.40;99.90;;;;;;5032793;28;20037;-74
2022/10/23 04:17:46;;;;;;;21.33;4.22;;;14.50;99.90;;;;;;5033924;28;20043;-74
2022/10/23 04:20:13;;;;;;;16.92;3.63;;;14.40;99.90;;;;;;5034924;28;20041;-74
2022/10/23 04:22:41;;;;;;;17.17;3.47;;;14.50;99.90;;;;;;5033478;28;20054;-74
2022/10/23 04:25:10;;;;;;;24.35;3.90;;;14.60;99.90;;;;;;5034533;28;20361;-75
2022/10/23 04:27:37;;;;;;;24.60;3.50;;;14.60;99.90;;;;;;5050261;28;20049;-74
2022/10/23 04:30:06;;;;;;;16.75;3.25;;;14.70;99.90;;;;;;5032519;28;20515;-74
2022/10/23 04:32:33;;;;;;;14.13;3.15;;;14.70;99.90;;;;;;5034444;28;20333;-75
2022/10/23 04:35:01;;;;;;;17.83;2.70;;;14.70;99.90;;;;;;5016352;28;20236;-74
2022/10/23 04:37:30;;;;;;;11.15;2.90;;;14.70;99.90;;;;;;5033538;28;20037;-75
2022/10/23 04:39:59;;;;;;;14.63;2.78;;;14.80;99.90;;;;;;5033476;28;20045;-74
2022/10/23 04:42:27;;;;;;;11.35;2.53;;;14.70;99.90;;;;;;5032445;28;20045;-75
2022/10/23 04:44:57;;;;;;;14.73;2.97;;;14.80;99.90;;;;;;5034116;28;20052;-74
2022/10/23 04:47:24;;;;;;;16.55;3.05;;;14.80;99.90;;;;;;5033428;28;20041;-74
2022/10/23 04:49:58;;;;;;;14.43;2.67;;;14.80;99.90;;;;;;5032976;28;20053;-75
2022/10/23 04:52:55;;;;;;;14.70;2.60;;;14.90;99.90;;;;;;5034040;28;20042;-75
2022/10/23 04:55:50;;;;;;;13.13;2.70;;;14.90;99.90;;;;;;5033636;28;20056;-75
2022/10/23 04:58:38;;;;;;;13.57;2.30;;;15.00;99.90;;;;;;5034197;28;20064;-74
2022/10/23 05:01:09;;;;;;;10.20;2.35;;;15.00;99.90;;;;;;5034099;28;20449;-74
2022/10/23 05:03:37;;;;;;;22.13;2.47;;;15.00;99.90;;;;;;5032190;28;20045;-74
2022/10/23 05:06:05;;;;;;;12.55;2.28;;;15.10;99.90;;;;;;5034400;28;20048;-73
2022/10/23 05:08:53;;;;;;;8.75;2.25;;;15.10;99.90;;;;;;5035800;28;20389;-74
2022/10/23 05:11:40;;;;;;;11.00;2.30;;;15.20;99.90;;;;;;5030545;28;20067;-74
2022/10/23 05:14:08;;;;;;;8.75;1.80;;;15.30;99.90;;;;;;5037026;28;20495;-74
2022/10/23 05:17:04;;;;;;;10.27;2.40;;;15.30;99.90;;;;;;5036617;28;20049;-74
2022/10/23 05:19:42;;;;;;;7.30;1.77;;;15.30;99.90;;;;;;5036773;28;20056;-74
2022/10/23 05:22:10;;;;;;;11.48;2.20;;;15.40;99.90;;;;;;5036297;28;20046;-74
2022/10/23 05:24:51;;;;;;;10.20;2.08;;;15.40;99.90;;;;;;5036807;28;20045;-74
2022/10/23 05:27:22;;;;;;;9.88;2.30;;;15.40;99.90;;;;;;5037013;28;20056;-74
2022/10/23 05:29:51;;;;;;;10.88;2.17;;;15.50;99.90;;;;;;5035840;28;20460;-74
2022/10/23 05:32:26;;;;;;;9.65;1.80;;;15.50;99.90;;;;;;5036571;28;20045;-74
2022/10/23 05:34:54;;;;;;;12.82;1.95;;;15.50;99.90;;;;;;5035487;28;20041;-75
2022/10/23 05:37:26;;;;;;;11.05;1.85;;;15.60;99.90;;;;;;5036548;28;20041;-74
2022/10/23 05:40:03;;;;;;;9.18;1.85;;;15.60;99.90;;;;;;5036530;28;20487;-74
2022/10/23 05:42:33;;;;;;;11.40;1.90;;;15.70;99.90;;;;;;5018799;28;20496;-74
2022/10/23 05:45:05;;;;;;;12.27;1.90;;;15.70;99.90;;;;;;5037032;28;20483;-74
2022/10/23 05:47:59;;;;;;;11.63;1.88;;;15.80;99.90;;;;;;5007090;28;20376;-74
2022/10/23 05:51:07;;;;;;;10.90;1.83;;;15.70;99.90;;;;;;5037026;28;20053;-74
2022/10/23 05:53:55;;;;;;;10.68;1.90;;;15.80;99.90;;;;;;5037023;28;20058;-74
2022/10/23 05:56:40;;;;;;;12.43;1.80;;;15.80;99.90;;;;;;5035188;28;20041;-74
2022/10/23 05:59:22;;;;;;;9.02;1.77;;;15.80;99.90;;;;;;5036294;28;20048;-75
2022/10/23 06:01:57;;;;;;;8.30;1.65;;;15.70;99.90;;;;;;5035670;28;20053;-73
2022/10/23 06:04:35;;;;;;;8.02;1.60;;;15.80;99.90;;;;;;5036320;28;20060;-74
2022/10/23 06:07:28;;;;;;;11.82;1.50;;;15.70;99.90;;;;;;5037021;28;20045;-75
2022/10/23 06:10:05;;;;;;;9.77;1.92;;;15.80;99.90;;;;;;5019787;28;20057;-74
2022/10/23 06:12:38;;;;;;;9.57;1.60;;;15.80;99.90;;;;;;5036317;28;20045;-75
2022/10/23 06:15:06;;;;;;;10.05;1.80;;;15.80;99.90;;;;;;5035113;28;20358;-74
2022/10/23 06:18:03;;;;;;;7.60;2.10;;;15.70;99.90;;;;;;5023501;28;20046;-74
2022/10/23 06:20:36;;;;;;;8.80;2.13;;;15.70;99.90;;;;;;4999117;28;20038;-74
2022/10/23 06:23:11;;;;;;;9.27;2.08;;;15.60;99.90;;;;;;4998499;28;20045;-74
2022/10/23 06:26:18;;;;;;;13.82;2.45;;;15.60;99.90;;;;;;4956700;29;20512;-75
2022/10/23 06:29:14;;;;;;;8.63;1.90;;;15.60;99.90;;;;;;4952174;29;20046;-75
2022/10/23 06:31:43;;;;;;;16.27;2.60;;;15.50;99.90;;;;;;4977011;28;20507;-75
2022/10/23 06:34:12;;;;;;;13.02;2.05;;;15.50;99.90;;;;;;4999405;28;20042;-74
2022/10/23 06:36:41;;;;;;;16.55;2.40;;;15.40;99.90;;;;;;4998672;28;20034;-75
2022/10/23 06:39:27;;;;;;;9.00;2.35;;;15.40;99.90;;;;;;5016427;28;20042;-74
2022/10/23 06:42:17;;;;;;;9.68;2.42;;;15.40;99.90;;;;;;4998409;28;20473;-75
2022/10/23 06:44:53;;;;;;;24.65;4.55;;;15.40;99.90;;;;;;5016559;28;20042;-75
2022/10/23 06:47:39;;;;;;;21.35;3.65;;;15.40;99.90;;;;;;5016341;28;20056;-75
2022/10/23 06:50:29;;;;;;;;;;;15.40;99.90;;;;;;4970252;28;20054;-75
2022/10/23 06:52:59;;;;;;;20.65;3.42;;;15.30;99.90;;;;;;5015621;28;19921;-75
2022/10/23 06:55:29;;;;;;;13.13;3.35;;;15.30;99.90;;;;;;4998028;28;20053;-74
2022/10/23 06:57:56;;;;;;;16.95;3.38;;;15.20;99.90;;;;;;4998882;28;20061;-75
2022/10/23 07:00:24;;;;;;;12.25;3.05;;;15.10;99.90;;;;;;4999153;28;20050;-74
2022/10/23 07:02:53;;;;;;;15.30;3.45;;;15.10;99.90;;;;;;4997920;28;20053;-75
2022/10/23 07:05:21;;;;;;;12.30;3.28;;;15.10;99.90;;;;;;4998919;28;20054;-75
2022/10/23 07:07:49;;;;;;;18.63;3.60;;;15.00;99.90;;;;;;4998938;28;20042;-74
2022/10/23 07:10:23;;;;;;;19.88;3.75;;;15.00;99.90;;;;;;4997841;28;20453;-74
2022/10/23 07:12:59;;;;;;;11.77;3.28;;;15.00;99.90;;;;;;5016456;28;20444;-74
2022/10/23 07:15:39;;;;;;;14.77;3.60;;;15.00;99.90;;;;;;4997942;28;20042;-74
2022/10/23 07:18:13;;;;;;;21.45;3.58;;;16.50;99.90;;;;;;5002767;28;20376;-75
2022/10/23 07:21:01;;;;;;;16.73;3.25;;;15.00;99.90;;;;;;5024848;28;20054;-75
2022/10/23 07:23:30;;;;;;;16.73;3.67;;;15.00;99.90;;;;;;5033497;28;20045;-74
2022/10/23 07:26:14;;;;;;;20.75;4.10;;;15.00;99.90;;;;;;5035046;28;20120;-74
2022/10/23 07:28:43;;;;;;;19.75;3.60;;;15.00;99.90;;;;;;5034338;28;20042;-74
2022/10/23 07:31:16;;;;;;;20.52;4.28;;;14.90;99.90;;;;;;5018011;28;20053;-75
2022/10/23 07:34:16;;;;;;;22.63;4.70;;;14.90;99.90;;;;;;5035260;28;20471;-74
2022/10/23 07:36:46;;;;;;;17.30;3.58;;;14.90;99.90;;;;;;5033192;28;20045;-74
2022/10/23 07:39:13;;;;;;;18.42;4.20;;;15.00;99.90;;;;;;5034263;28;20350;-74
2022/10/23 07:41:48;;;;;;;19.58;3.90;;;15.00;99.90;;;;;;5016641;28;20064;-74
2022/10/23 07:44:17;;;;;;;24.27;4.03;;;15.00;99.90;;;;;;5033833;28;20041;-73
2022/10/23 07:46:48;;;;;;;18.42;4.07;;;15.00;99.90;;;;;;5034114;28;20053;-74
2022/10/23 07:49:17;;;;;;;20.73;4.00;;;15.00;99.90;;;;;;5049793;28;20064;-73
2022/10/23 07:51:45;;;;;;;18.73;4.18;;;15.00;99.90;;;;;;5034714;28;20053;-74
2022/10/23 07:54:17;;;;;;;23.00;4.20;;;15.00;99.90;;;;;;5017362;28;20064;-73
2022/10/23 07:57:00;;;;;;;21.40;4.10;;;15.10;99.90;;;;;;5033870;28;20041;-73
2022/10/23 07:59:39;;;;;;;16.98;3.80;;;15.10;99.90;;;;;;5033584;28;20048;-73
2022/10/23 08:02:14;;;;;;;18.75;4.00;;;15.20;99.90;;;;;;5032843;28;20049;-73
2022/10/23 08:04:43;;;;;;;19.95;4.28;;;15.20;99.90;;;;;;5033863;28;20460;-73
2022/10/23 08:07:23;;;;;;;22.83;4.40;;;15.30;99.90;;;;;;5019332;28;20056;-73
2022/10/23 08:09:54;;;;;;;19.67;4.10;;;15.30;99.90;;;;;;5032995;28;20045;-73
2022/10/23 08:12:22;;;;;;;20.35;4.03;;;15.40;99.90;;;;;;5033599;28;20460;-73
2022/10/23 08:14:49;;;;;;;15.90;4.10;;;15.40;99.90;;;;;;5032510;28;20045;-73
2022/10/23 08:17:17;;;;;;;23.60;4.43;;;15.50;99.90;;;;;;5033339;28;20057;-73
2022/10/23 08:20:05;;;;;;;23.35;4.32;;;15.50;99.90;;;;;;5033663;28;20069;-73
2022/10/23 08:22:39;;;;;;;25.15;4.25;;;15.50;99.90;;;;;;5032635;28;20041;-71
2022/10/23 08:25:08;;;;;;;24.92;4.05;;;15.60;99.90;;;;;;5033586;28;20072;-72
2022/10/23 08:27:37;;;;;;;;;;;15.60;99.90;;;;;;5033616;28;20038;-73
2022/10/23 08:30:05;;;;;;;20.23;4.20;;;15.60;99.90;;;;;;5032605;28;19932;-72
2022/10/23 08:32:33;;;;;;;20.17;4.30;;;15.70;99.90;;;;;;5033513;28;20045;-72
2022/10/23 08:35:02;;;;;;;21.75;3.95;;;15.70;99.90;;;;;;5032698;28;20041;-72
2022/10/23 08:37:31;;;;;;;14.43;3.97;;;15.70;99.90;;;;;;5034295;28;20384;-72
2022/10/23 08:39:59;;;;;;;22.23;4.35;;;15.70;99.90;;;;;;5033354;28;20053;-72
2022/10/23 08:42:56;;;;;;;16.75;4.13;;;15.60;99.90;;;;;;5034473;28;20060;-72
2022/10/23 08:45:35;;;;;;;20.48;3.80;;;15.60;99.90;;;;;;5038558;28;20049;-72
2022/10/23 08:48:48;;;;;;;24.50;4.32;;;15.60;99.90;;;;;;5036425;28;20072;-72
2022/10/23 08:51:48;;;;;;;25.48;4.75;;;15.60;99.90;;;;;;5026790;28;20069;-73
2022/10/23 08:54:30;;;;;;;29.50;5.82;;;15.60;99.90;;;;;;5037965;28;20053;-73
2022/10/23 08:57:22;;;;;;;26.45;5.28;;;15.60;99.90;;;;;;5036970;28;20460;-73
2022/10/23 08:59:59;;;;;;;28.13;5.35;;;15.60;99.90;;;;;;5038070;28;20053;-73
2022/10/23 09:02:32;;;;;;;22.52;5.20;;;15.50;99.90;;;;;;5037135;28;20053;-71
2022/10/23 09:05:00;;;;;;;16.13;4.85;;;15.50;99.90;;;;;;5040362;28;20037;-72
2022/10/23 09:07:45;;;;;;;22.15;4.60;;;15.50;99.90;;;;;;5037363;28;20064;-74
2022/10/23 09:10:37;;;;;;;20.52;4.63;;;15.50;99.90;;;;;;5036665;28;20038;-73
2022/10/23 09:13:32;;;;;;;21.20;4.75;;;15.50;99.90;;;;;;5037960;28;20038;-73
2022/10/23 09:16:23;;;;;;;21.13;4.60;;;15.50;99.90;;;;;;5037420;28;20048;-72
2022/10/23 09:18:57;;;;;;;25.45;4.40;;;15.60;99.90;;;;;;5020376;28;20050;-73
2022/10/23 09:21:26;;;;;;;18.45;4.20;;;15.70;99.90;;;;;;5017080;28;20053;-73
2022/10/23 09:23:54;;;;;;;25.00;4.82;;;15.70;99.90;;;;;;5018045;28;20492;-73
2022/10/23 09:26:22;;;;;;;21.90;4.35;;;15.80;99.90;;;;;;5001326;28;20049;-73
2022/10/23 09:28:54;;;;;;;18.73;4.18;;;15.90;99.90;;;;;;5000122;28;20056;-73
2022/10/23 09:31:21;;;;;;;23.25;4.30;;;15.90;99.90;;;;;;5017828;28;20469;-74
2022/10/23 09:33:56;;;;;;;25.90;3.77;;;15.90;99.90;;;;;;5018312;28;20042;-74
2022/10/23 09:36:27;;;;;;;15.32;3.60;;;15.90;99.90;;;;;;5017082;28;20279;-75
2022/10/23 09:38:57;;;;;;;16.60;3.40;;;16.00;99.90;;;;;;5018088;28;20064;-74
2022/10/23 09:41:36;;;;;;;18.17;3.85;;;16.10;99.90;;;;;;5017056;28;20038;-75
2022/10/23 09:44:06;;;;;;;15.23;3.30;;;16.10;99.90;;;;;;5036899;28;20064;-74
2022/10/23 09:46:41;;;;;;;14.27;3.10;;;16.10;99.90;;;;;;5020693;28;20112;-75
2022/10/23 09:49:22;;;;;;;13.95;3.50;;;16.20;99.90;;;;;;5003275;28;20064;-75
2022/10/23 09:52:10;;;;;;;14.40;2.90;;;16.20;99.90;;;;;;5037986;28;20049;-75
2022/10/23 09:54:53;;;;;;;12.20;2.80;;;16.20;99.90;;;;;;5036738;28;20372;-73
2022/10/23 09:57:39;;;;;;;12.45;3.05;;;16.30;99.90;;;;;;5020299;28;20044;-73
2022/10/23 10:00:13;;;;;;;13.07;3.05;;;16.40;99.90;;;;;;5037526;28;20042;-73
2022/10/23 10:02:43;;;;;;;13.27;2.92;;;16.40;99.90;;;;;;5036183;28;20045;-72
2022/10/23 10:05:34;;;;;;;14.50;2.90;;;16.50;99.90;;;;;;5003316;28;20373;-73
2022/10/23 10:08:19;;;;;;;13.30;3.05;;;16.70;99.90;;;;;;5019265;28;20046;-72
2022/10/23 10:10:59;;;;;;;11.75;2.60;;;16.80;99.90;;;;;;5036862;28;20468;-73
2022/10/23 10:13:58;;;;;;;11.27;2.63;;;16.80;99.90;;;;;;5036824;28;20376;-72
2022/10/23 10:16:32;;;;;;;13.30;2.63;;;16.90;99.90;;;;;;5002506;28;20350;-72
2022/10/23 10:19:15;;;;;;;14.35;2.90;;;16.90;99.90;;;;;;5036537;28;20120;-73
2022/10/23 10:22:08;;;;;;;11.88;2.38;;;16.90;99.90;;;;;;5036325;28;20048;-72
2022/10/23 10:24:46;;;;;;;15.52;2.42;;;16.80;99.90;;;;;;5036779;28;20064;-72
2022/10/23 10:27:36;;;;;;;33.47;3.60;;;16.70;99.90;;;;;;5036904;28;20453;-72
2022/10/23 10:30:04;;;;;;;28.90;4.63;;;16.60;99.90;;;;;;5036156;28;20050;-72
2022/10/23 10:32:38;;;;;;;34.70;4.30;;;16.60;99.90;;;;;;5036534;28;20472;-72
2022/10/23 10:35:27;;;;;;;23.33;3.65;;;16.50;99.90;;;;;;5035550;28;20045;-72
2022/10/23 10:38:03;;;;;;;22.35;3.85;;;16.30;99.90;;;;;;5036725;28;20045;-72
2022/10/23 10:40:41;;;;;;;16.95;3.40;;;16.20;99.90;;;;;;5037032;28;20045;-72
2022/10/23 10:43:46;;;;;;;17.63;3.30;;;16.10;99.90;;;;;;5035515;28;20357;-72
2022/10/23 10:46:25;;;;;;;15.68;3.35;;;16.10;99.90;;;;;;4999874;28;20053;-72
2022/10/23 10:49:00;;;;;;;18.02;3.30;;;16.10;99.90;;;;;;5035298;28;20046;-72
2022/10/23 10:51:51;;;;;;;17.75;3.63;;;16.20;99.90;;;;;;5036295;28;20057;-72
2022/10/23 10:54:56;;;;;;;17.40;3.50;;;16.30;99.90;;;;;;5036613;28;20052;-72
2022/10/23 10:57:38;;;;;;;19.50;3.20;;;16.40;99.90;;;;;;5027948;28;20046;-72
2022/10/23 11:00:21;;;;;;;13.05;3.00;;;16.60;99.90;;;;;;5014787;28;20499;-72
2022/10/23 11:02:53;;;;;;;17.20;3.20;;;16.80;99.90;;;;;;5014967;28;20050;-72
2022/10/23 11:05:37;;;;;;;13.20;3.10;;;17.00;99.90;;;;;;4998076;28;20064;-72
2022/10/23 11:08:16;;;;;;;15.98;2.78;;;17.10;99.90;;;;;;5014712;28;20072;-72
2022/10/23 11:10:48;;;;;;;15.32;3.05;;;17.20;99.90;;;;;;5016505;28;20045;-72
2022/10/23 11:13:37;;;;;;;11.38;3.05;;;17.30;99.90;;;;;;5019092;28;20056;-73
2022/10/23 11:16:20;;;;;;;12.02;2.60;;;17.30;99.90;;;;;;5030121;28;20460;-74
2022/10/23 11:19:02;;;;;;;13.57;2.63;;;17.30;99.90;;;;;;5049108;28;20045;-73
2022/10/23 11:22:03;;;;;;;18.50;3.22;;;17.30;99.90;;;;;;5051183;28;20057;-72
2022/10/23 11:25:00;;;;;;;13.38;3.25;;;17.30;99.90;;;;;;5023357;28;20383;-72
2022/10/23 11:27:42;;;;;;;20.70;3.65;;;17.40;99.90;;;;;;5055574;28;20048;-73
2022/10/23 11:30:22;;;;;;;15.32;3.20;;;17.50;99.90;;;;;;5053667;28;20349;-73
2022/10/23 11:33:32;;;;;;;12.20;3.20;;;17.60;99.90;;;;;;5044768;28;20045;-73
2022/10/23 11:36:13;;;;;;;20.40;3.40;;;17.70;99.90;;;;;;5031692;28;20053;-73
2022/10/23 11:38:49;;;;;;;19.67;3.30;;;17.80;99.90;;;;;;5034981;28;20052;-73
2022/10/23 11:41:20;;;;;;;17.80;3.22;;;17.90;99.90;;;;;;5034824;28;20053;-72
2022/10/23 11:44:02;;;;;;;21.77;3.50;;;17.90;99.90;;;;;;5034261;28;20049;-72
2022/10/23 11:46:35;;;;;;;22.35;3.78;;;18.00;99.90;;;;;;5034891;28;20049;-72
2022/10/23 11:49:05;;;;;;;14.18;3.25;;;18.10;99.90;;;;;;5033929;28;20049;-72
2022/10/23 11:51:35;;;;;;;14.80;3.25;;;18.30;99.90;;;;;;5034910;28;20049;-72
2022/10/23 11:54:14;;;;;;;21.60;3.60;;;18.50;99.90;;;;;;5035024;28;20045;-72
2022/10/23 11:56:53;;;;;;;21.63;3.35;;;18.80;99.90;;;;;;5033959;28;20356;-72
2022/10/23 11:59:28;;;;;;;21.55;3.38;;;18.90;99.90;;;;;;5034915;28;20060;-72
2022/10/23 12:01:59;;;;;;;19.02;3.50;;;19.10;99.90;;;;;;5033731;28;20050;-72
2022/10/23 12:04:44;;;;;;;22.33;3.72;;;19.10;99.90;;;;;;5050701;28;20060;-72
2022/10/23 12:07:25;;;;;;;22.38;3.78;;;19.20;99.90;;;;;;5033440;28;20064;-72
2022/10/23 12:09:58;;;;;;;22.55;4.93;;;19.20;99.90;;;;;;5033943;28;20049;-72
2022/10/23 12:12:29;;;;;;;14.82;3.58;;;19.20;99.90;;;;;;5034642;28;20053;-74
2022/10/23 12:15:10;;;;;;;18.42;3.35;;;19.00;99.90;;;;;;5033058;28;20053;-72
2022/10/23 12:17:39;;;;;;;21.02;3.40;;;18.90;99.90;;;;;;5026603;28;20038;-71
2022/10/23 12:20:07;;;;;;;22.45;3.92;;;18.80;99.90;;;;;;5014802;28;20057;-71
2022/10/23 12:22:53;;;;;;;23.40;3.50;;;18.80;99.90;;;;;;5013939;28;20365;-71
2022/10/23 12:25:59;;;;;;;19.13;3.30;;;18.70;99.90;;;;;;5015166;28;20302;-71
2022/10/23 12:28:53;;;;;;;19.00;3.25;;;18.50;99.90;;;;;;5013694;28;20057;-71
2022/10/23 12:31:39;;;;;;;20.85;3.70;;;18.30;99.90;;;;;;4996491;28;20116;-71
2022/10/23 12:34:13;;;;;;;19.70;3.15;;;18.20;99.90;;;;;;5014926;28;20357;-71
2022/10/23 12:37:13;;;;;;;22.87;3.33;;;18.20;99.90;;;;;;5013723;28;20042;-72
2022/10/23 12:39:40;;;;;;;15.43;3.20;;;18.30;99.90;;;;;;5014091;28;20288;-71
2022/10/23 12:42:26;;;;;;;11.15;3.00;;;18.30;99.90;;;;;;5013512;28;20053;-71
2022/10/23 12:45:02;;;;;;;15.60;3.30;;;18.30;99.90;;;;;;5014606;28;20061;-71
2022/10/23 12:47:29;;;;;;;13.75;5.20;;;18.30;99.90;;;;;;5014846;28;20057;-71
2022/10/23 12:49:57;;;;;;;16.52;2.95;;;18.30;99.90;;;;;;5013430;28;20050;-71
2022/10/23 12:52:24;;;;;;;18.08;3.00;;;18.50;99.90;;;;;;4997574;28;20049;-71
2022/10/23 12:54:52;;;;;;;11.07;3.17;;;18.60;99.90;;;;;;5013656;28;20053;-71
2022/10/23 12:57:27;;;;;;;14.18;3.13;;;18.80;99.90;;;;;;5014554;28;20050;-71
2022/10/23 12:59:57;;;;;;;12.23;2.92;;;19.00;99.90;;;;;;5014336;28;20046;-73
2022/10/23 13:02:30;;;;;;;14.18;3.30;;;19.10;99.90;;;;;;5015546;28;20042;-72
2022/10/23 13:05:01;;;;;;;18.90;3.00;;;19.10;99.90;;;;;;5034191;28;20456;-72
2022/10/23 13:07:32;;;;;;;11.63;3.10;;;19.20;99.90;;;;;;5033690;28;20494;-71
2022/10/23 13:10:03;;;;;;;17.08;3.60;;;19.20;99.90;;;;;;5015925;28;20049;-71
2022/10/23 13:12:37;;;;;;;11.98;3.90;;;19.10;99.90;;;;;;5016850;28;20053;-71
2022/10/23 13:15:09;;;;;;;16.17;5.13;;;19.00;99.90;;;;;;5033175;28;20053;-71
2022/10/23 13:17:43;;;;;;;12.75;4.10;;;18.90;99.90;;;;;;5033640;28;20388;-71
2022/10/23 13:20:17;;;;;;;16.55;4.90;;;18.70;99.90;;;;;;5034008;28;20372;-71
2022/10/23 13:22:47;;;;;;;21.02;5.00;;;18.70;99.90;;;;;;5032921;28;20045;-71
2022/10/23 13:25:30;;;;;;;15.82;5.20;;;18.60;99.90;;;;;;5033959;28;20049;-71